logo tempoitalia

Diretta Meteo Shepherd Bay N W T, Canadadomenica 30 agosto ore 23:00

Mappa
Sereno 13 °C Sereno 24 Ore: T.min 9 T.max 18
Ponente Sud Km/h 14.8 Punto di rugiada: 10 °C Umidità: 81% Visibilità: 0 Km
Il sole sorge alle: 04:29 Il sole tramonta alle: 19:58
30 Agosto 2026 23:00 tempo osservato: Sereno Sereno 13 81 1010 vento: Nord S 14.8
30 Agosto 2026 22:00 tempo osservato: Sereno Sereno 13 87 1010 vento: Nord S/SE 11.1
30 Agosto 2026 21:00 tempo osservato: Sereno Sereno 14 82 1011 vento: Nord S 14.8
30 Agosto 2026 20:00 tempo osservato: Sereno Sereno 15 76 1011 vento: Nord S 16.7
30 Agosto 2026 19:00 tempo osservato: Sereno Sereno 15 72 1011 vento: Nord S 16.7
30 Agosto 2026 18:00 tempo osservato: Sereno Sereno 16 67 1011 vento: Nord S 14.8
30 Agosto 2026 17:00 tempo osservato: Sereno Sereno 18 55 1011 vento: Nord S 18.5
30 Agosto 2026 16:00 tempo osservato: Sereno Sereno 18 51 1011 vento: Nord S 24
30 Agosto 2026 15:00 tempo osservato: Sereno Sereno 18 51 1012 vento: Nord S 18.5
30 Agosto 2026 14:00 tempo osservato: Sereno Sereno 18 51 1012 vento: Nord S 22.2
30 Agosto 2026 13:00 tempo osservato: Sereno Sereno 17 59 1013 vento: Nord S 22.2
30 Agosto 2026 12:00 tempo osservato: Sereno Sereno 16 63 1013 vento: Nord S/SO 24
30 Agosto 2026 11:00 tempo osservato: Sereno Sereno 16 58 1013 vento: Nord S 22.2
30 Agosto 2026 10:00 tempo osservato: Sereno Sereno 15 62 1014 vento: Nord S 20.3
30 Agosto 2026 09:00 tempo osservato: Sereno Sereno 13 71 1014 vento: Nord S 22.2
30 Agosto 2026 08:00 tempo osservato: Sereno Sereno 10 81 1014 vento: Nord S 18.5
30 Agosto 2026 07:00 tempo osservato: Sereno Sereno 10 81 1014 vento: Nord S 20.3
30 Agosto 2026 06:00 tempo osservato: Sereno Sereno 9 87 1014 vento: Nord S 20.3
30 Agosto 2026 05:00 tempo osservato: Sereno Sereno 10 81 1014 vento: Nord S 20.3
30 Agosto 2026 04:00 tempo osservato: Sereno Sereno 9 87 1014 vento: Nord S 18.5
30 Agosto 2026 03:00 tempo osservato: Sereno Sereno 10 81 1014 vento: Nord S 16.7
30 Agosto 2026 02:00 tempo osservato: Sereno Sereno 10 81 1014 vento: Nord S 18.5
30 Agosto 2026 01:00 tempo osservato: Sereno Sereno 10 81 1014 vento: Nord S/SE 14.8
30 Agosto 2026 00:00 tempo osservato: Sereno Sereno 10 81 1014 vento: Nord S/SE 13